createdAt,value
2023-04-21T00:02:20.280Z,60.33
2023-04-21T00:04:47.244Z,60.61
2023-04-21T00:07:16.743Z,60.98
2023-04-21T00:09:43.325Z,61.28
2023-04-21T00:12:09.934Z,64.11
2023-04-21T00:14:36.459Z,64.55
2023-04-21T00:17:03.227Z,62.72
2023-04-21T00:19:30.615Z,59.54
2023-04-21T00:21:59.698Z,57.95
2023-04-21T00:24:26.376Z,58.13
2023-04-21T00:26:53.062Z,58.77
2023-04-21T00:29:22.472Z,59.85
2023-04-21T00:31:49.969Z,61.02
2023-04-21T00:34:16.699Z,64.31
2023-04-21T00:36:43.369Z,64.89
2023-04-21T00:39:09.940Z,62.23
2023-04-21T00:41:36.967Z,59.02
2023-04-21T00:44:05.591Z,57.21
2023-04-21T00:46:33.738Z,58.01
2023-04-21T00:49:03.196Z,59.08
2023-04-21T00:51:33.187Z,59.66
2023-04-21T00:54:02.349Z,60.10
2023-04-21T00:56:31.998Z,63.25
2023-04-21T00:59:00.449Z,64.73
2023-04-21T01:01:29.931Z,62.32
2023-04-21T01:04:01.585Z,59.39
2023-04-21T01:06:32.319Z,57.67
2023-04-21T01:08:58.888Z,58.49
2023-04-21T01:11:26.274Z,59.80
2023-04-21T01:13:56.705Z,60.74
2023-04-21T01:16:24.298Z,64.43
2023-04-21T01:18:53.732Z,65.09
2023-04-21T01:21:21.810Z,62.93
2023-04-21T01:23:48.681Z,61.23
2023-04-21T01:26:19.086Z,59.11
2023-04-21T01:28:47.651Z,58.15
2023-04-21T01:31:16.525Z,58.85
2023-04-21T01:33:43.394Z,59.58
2023-04-21T01:36:13.454Z,60.89
2023-04-21T01:38:41.433Z,64.58
2023-04-21T01:41:09.388Z,65.93
2023-04-21T01:43:37.062Z,63.89
2023-04-21T01:46:05.020Z,62.25
2023-04-21T01:48:31.703Z,60.84
2023-04-21T01:50:58.981Z,58.92
2023-04-21T01:53:26.855Z,57.88
2023-04-21T01:55:53.433Z,58.86
2023-04-21T01:58:21.142Z,60.05
2023-04-21T02:00:47.829Z,63.15
2023-04-21T02:03:14.512Z,64.87
2023-04-21T02:05:41.164Z,63.58
2023-04-21T02:08:07.897Z,62.80
2023-04-21T02:10:34.638Z,61.64
2023-04-21T02:13:01.193Z,60.61
2023-04-21T02:20:06.981Z,57.09
2023-04-21T02:22:33.742Z,58.95
2023-04-21T02:25:02.972Z,60.42
2023-04-21T02:27:29.668Z,64.48
2023-04-21T02:29:59.477Z,66.13
2023-04-21T02:32:26.438Z,64.31
2023-04-21T02:34:53.159Z,63.02
2023-04-21T02:37:20.370Z,62.17
2023-04-21T02:39:46.924Z,61.43
2023-04-21T02:42:13.477Z,60.55
2023-04-21T02:44:40.049Z,58.93
2023-04-21T02:47:06.890Z,58.52
2023-04-21T02:49:33.501Z,59.61
2023-04-21T02:51:59.985Z,61.04
2023-04-21T02:54:26.765Z,64.78
2023-04-21T02:56:53.313Z,66.11
2023-04-21T02:59:20.094Z,65.12
2023-04-21T03:01:49.109Z,63.75
2023-04-21T03:04:15.828Z,62.68
2023-04-21T03:06:42.614Z,61.85
2023-04-21T03:09:09.142Z,61.16
2023-04-21T03:11:35.857Z,60.60
2023-04-21T03:14:02.413Z,58.91
2023-04-21T03:16:29.529Z,57.97
2023-04-21T03:18:56.214Z,59.07
2023-04-21T03:21:22.735Z,60.30
2023-04-21T03:23:49.278Z,64.11
2023-04-21T03:26:16.462Z,65.98
2023-04-21T03:28:43.432Z,65.03
2023-04-21T03:31:09.958Z,63.90
2023-04-21T03:33:36.578Z,62.75
2023-04-21T03:36:03.217Z,61.96
2023-04-21T03:38:29.955Z,60.76
2023-04-21T03:40:56.907Z,60.56
2023-04-21T03:43:23.448Z,60.13
2023-04-21T03:45:50.016Z,58.25
2023-04-21T03:48:21.160Z,58.13
2023-04-21T03:50:47.772Z,59.17
2023-04-21T03:53:14.835Z,60.21
2023-04-21T03:55:41.414Z,64.35
2023-04-21T03:58:08.027Z,65.76
2023-04-21T04:00:34.797Z,64.26
2023-04-21T04:03:01.429Z,62.91
2023-04-21T04:05:28.394Z,62.32
2023-04-21T04:07:54.987Z,61.50
2023-04-21T04:10:21.518Z,60.96
2023-04-21T04:12:48.049Z,60.41
2023-04-21T04:15:15.535Z,58.68
2023-04-21T04:17:42.212Z,58.19
2023-04-21T04:20:11.301Z,59.08
2023-04-21T04:22:38.036Z,60.21
2023-04-21T04:25:05.503Z,63.27
2023-04-21T04:27:32.357Z,64.69
2023-04-21T04:29:59.210Z,62.92
2023-04-21T04:32:29.309Z,60.85
2023-04-21T04:34:55.889Z,58.50
2023-04-21T04:37:22.737Z,57.34
2023-04-21T04:39:50.386Z,58.19
2023-04-21T04:42:17.434Z,58.79
2023-04-21T04:44:44.162Z,59.99
2023-04-21T04:47:10.687Z,60.58
2023-04-21T04:49:37.308Z,63.30
2023-04-21T04:52:04.298Z,64.38
2023-04-21T04:54:30.917Z,62.35
2023-04-21T04:56:58.086Z,60.63
2023-04-21T04:59:24.731Z,57.17
2023-04-21T05:01:51.564Z,56.09
2023-04-21T05:04:18.590Z,56.43
2023-04-21T05:06:45.661Z,57.75
2023-04-21T05:09:14.663Z,58.07
2023-04-21T05:11:42.039Z,57.86
2023-04-21T05:14:08.708Z,58.72
2023-04-21T05:16:35.861Z,58.90
2023-04-21T05:19:03.535Z,59.09
2023-04-21T05:21:31.289Z,59.01
2023-04-21T05:23:59.215Z,59.01
2023-04-21T05:26:27.580Z,58.51
2023-04-21T05:28:58.708Z,58.51
2023-04-21T05:31:26.400Z,58.11
2023-04-21T05:33:53.441Z,57.84
2023-04-21T05:36:20.482Z,58.33
2023-04-21T05:38:47.612Z,58.07
2023-04-21T05:41:14.277Z,57.56
2023-04-21T05:43:40.921Z,57.16
2023-04-21T05:46:11.456Z,57.02
2023-04-21T05:48:38.498Z,56.33
2023-04-21T05:51:12.836Z,56.01
2023-04-21T05:53:40.081Z,55.76
2023-04-21T05:56:09.948Z,56.14
2023-04-21T05:58:42.396Z,55.84
2023-04-21T06:01:11.468Z,54.83
2023-04-21T06:03:40.357Z,54.55
2023-04-21T06:06:10.416Z,54.82
2023-04-21T06:08:39.296Z,54.13
2023-04-21T06:11:07.816Z,54.02
2023-04-21T06:13:38.848Z,54.06
2023-04-21T06:16:09.127Z,53.55
2023-04-21T06:18:38.398Z,54.38
2023-04-21T06:21:07.300Z,52.59
2023-04-21T06:23:36.359Z,52.39
2023-04-21T06:26:07.804Z,51.56
2023-04-21T06:28:39.361Z,49.13
2023-04-21T06:31:09.909Z,45.68
2023-04-21T06:33:38.384Z,42.12
2023-04-21T06:36:07.064Z,36.93
2023-04-21T06:38:36.096Z,32.36
2023-04-21T06:41:04.690Z,29.97
2023-04-21T06:43:34.313Z,29.87
2023-04-21T06:46:03.689Z,27.30
2023-04-21T06:48:33.340Z,25.58
2023-04-21T06:51:02.914Z,24.63
2023-04-21T06:53:31.639Z,23.06
2023-04-21T07:05:56.373Z,18.90
2023-04-21T07:08:23.022Z,18.62
2023-04-21T07:10:49.863Z,17.98
2023-04-21T07:13:17.883Z,17.58
2023-04-21T07:15:44.626Z,16.52
2023-04-21T07:18:11.235Z,16.57
2023-04-21T07:20:38.043Z,16.08
2023-04-21T07:23:04.935Z,15.35
2023-04-21T07:25:31.494Z,14.86
2023-04-21T07:27:58.110Z,15.10
2023-04-21T07:30:24.779Z,15.00
2023-04-21T07:32:51.646Z,14.35
2023-04-21T07:35:18.517Z,13.60
2023-04-21T07:37:45.639Z,13.82
2023-04-21T07:40:12.276Z,13.09
2023-04-21T07:42:39.509Z,13.35
2023-04-21T07:45:07.223Z,13.12
2023-04-21T07:47:33.837Z,12.99
2023-04-21T07:50:00.528Z,12.92
2023-04-21T07:52:27.330Z,12.39
2023-04-21T07:54:53.927Z,12.52
2023-04-21T07:57:20.512Z,11.70
2023-04-21T07:59:47.099Z,11.13
2023-04-21T08:02:13.793Z,10.51
2023-04-21T08:04:40.412Z,11.03
2023-04-21T08:07:07.486Z,11.06
2023-04-21T08:09:34.363Z,10.74
2023-04-21T08:12:02.247Z,10.83
2023-04-21T08:14:29.170Z,10.47
2023-04-21T08:16:57.289Z,10.49
2023-04-21T08:19:24.626Z,10.85
2023-04-21T08:21:51.233Z,11.12
2023-04-21T08:24:17.896Z,10.58
2023-04-21T08:26:45.139Z,10.24
2023-04-21T08:29:13.430Z,10.35
2023-04-21T08:31:40.253Z,10.44
2023-04-21T08:34:07.383Z,10.72
2023-04-21T08:36:34.552Z,10.54
2023-04-21T08:39:01.846Z,9.66
2023-04-21T08:41:28.482Z,9.36
2023-04-21T08:43:55.803Z,9.99
2023-04-21T08:46:23.433Z,10.91
2023-04-21T08:48:50.070Z,10.33
2023-04-21T08:51:24.318Z,9.57
2023-04-21T08:53:51.925Z,9.29
2023-04-21T08:56:18.851Z,9.08
2023-04-21T08:58:45.389Z,9.61
2023-04-21T09:01:12.313Z,9.74
2023-04-21T09:03:39.253Z,9.84
2023-04-21T09:06:09.604Z,9.59
2023-04-21T09:08:43.407Z,9.29
2023-04-21T09:11:14.448Z,9.38
2023-04-21T09:13:43.229Z,9.36
2023-04-21T09:16:21.766Z,9.64
2023-04-21T09:18:50.261Z,9.59
2023-04-21T09:21:19.731Z,9.76
2023-04-21T09:23:48.567Z,9.67
2023-04-21T09:26:16.539Z,9.88
2023-04-21T09:28:45.163Z,9.74
2023-04-21T09:31:29.203Z,9.77
2023-04-21T09:34:01.072Z,9.37
2023-04-21T09:36:30.791Z,9.04
2023-04-21T09:39:29.186Z,9.30
2023-04-21T09:41:49.615Z,9.47
2023-04-21T09:44:17.723Z,9.07
2023-04-21T09:46:50.060Z,9.54
2023-04-21T09:49:22.713Z,9.55
2023-04-21T09:52:14.646Z,9.27
2023-04-21T09:54:40.742Z,9.32
2023-04-21T09:57:13.610Z,8.14
2023-04-21T09:59:46.345Z,8.60
2023-04-21T10:02:13.899Z,8.86
2023-04-21T10:04:43.895Z,8.56
2023-04-21T10:07:11.743Z,9.50
2023-04-21T10:09:54.751Z,9.19
2023-04-21T10:12:22.746Z,9.26
2023-04-21T10:14:56.937Z,9.11
2023-04-21T10:17:25.485Z,8.75
2023-04-21T10:19:59.116Z,9.17
2023-04-21T10:22:33.873Z,9.88
2023-04-21T10:25:03.558Z,9.38
2023-04-21T10:27:40.625Z,9.25
2023-04-21T10:30:22.454Z,9.00
2023-04-21T10:33:01.831Z,8.62
2023-04-21T10:36:01.044Z,8.85
2023-04-21T10:38:35.698Z,9.11
2023-04-21T10:41:27.727Z,9.87
2023-04-21T10:43:54.715Z,10.04
2023-04-21T10:46:35.142Z,9.59
2023-04-21T10:49:23.787Z,8.81
2023-04-21T10:51:59.710Z,9.32
2023-04-21T10:54:28.365Z,9.50
2023-04-21T10:56:56.726Z,9.25
2023-04-21T10:59:25.220Z,9.06
2023-04-21T11:01:52.536Z,9.32
2023-04-21T11:04:23.148Z,9.14
2023-04-21T11:07:11.967Z,9.78
2023-04-21T11:09:40.045Z,9.82
2023-04-21T11:12:10.861Z,9.68
2023-04-21T11:14:40.428Z,9.44
2023-04-21T11:17:16.149Z,9.79
2023-04-21T11:19:54.399Z,10.12
2023-04-21T11:22:23.884Z,10.00
2023-04-21T11:24:54.284Z,9.63
2023-04-21T11:28:00.409Z,9.70
2023-04-21T11:30:34.869Z,10.17
2023-04-21T11:33:01.818Z,9.57
2023-04-21T11:35:32.158Z,9.72
2023-04-21T11:37:58.900Z,9.72
2023-04-21T11:40:25.633Z,9.09
2023-04-21T11:42:52.756Z,8.93
2023-04-21T11:45:22.532Z,9.90
2023-04-21T11:47:49.514Z,11.15
2023-04-21T11:50:31.614Z,10.55
2023-04-21T11:52:58.340Z,11.86
2023-04-21T11:55:25.001Z,12.08
2023-04-21T11:57:51.572Z,11.49
2023-04-21T12:00:19.017Z,11.16
2023-04-21T12:02:54.616Z,10.93
2023-04-21T12:05:22.354Z,11.02
2023-04-21T12:07:48.910Z,10.68
2023-04-21T12:10:19.250Z,12.01
2023-04-21T12:12:46.520Z,11.81
2023-04-21T12:15:20.156Z,11.65
2023-04-21T12:17:48.965Z,12.22
2023-04-21T12:20:16.686Z,12.29
2023-04-21T12:22:43.739Z,12.37
2023-04-21T12:25:10.509Z,11.66
2023-04-21T12:27:37.256Z,12.04
2023-04-21T12:30:04.681Z,11.65
2023-04-21T12:32:31.415Z,12.36
2023-04-21T12:34:58.126Z,12.64
2023-04-21T12:37:24.712Z,13.49
2023-04-21T12:39:51.263Z,13.35
2023-04-21T12:42:17.811Z,13.43
2023-04-21T12:44:45.688Z,13.22
2023-04-21T12:47:12.305Z,13.23
2023-04-21T12:49:39.146Z,11.83
2023-04-21T12:52:06.261Z,12.37
2023-04-21T12:54:33.835Z,12.71
2023-04-21T12:57:00.704Z,12.48
2023-04-21T12:59:27.490Z,12.63
2023-04-21T13:01:54.984Z,13.44
2023-04-21T13:04:21.932Z,13.75
2023-04-21T13:06:48.970Z,13.97
2023-04-21T13:09:17.038Z,14.54
2023-04-21T13:11:43.751Z,13.79
2023-04-21T13:14:11.003Z,14.50
2023-04-21T13:16:37.972Z,14.75
2023-04-21T13:19:05.003Z,15.58
2023-04-21T13:21:32.761Z,16.15
2023-04-21T13:23:59.408Z,15.94
2023-04-21T13:26:27.070Z,16.03
2023-04-21T13:28:53.827Z,15.28
2023-04-21T13:31:20.651Z,16.62
2023-04-21T13:33:47.359Z,14.78
2023-04-21T13:36:14.069Z,14.77
2023-04-21T13:38:41.091Z,15.85
2023-04-21T13:41:08.693Z,17.58
2023-04-21T13:43:35.850Z,17.06
2023-04-21T13:46:02.529Z,17.17
2023-04-21T13:48:29.945Z,17.21
2023-04-21T13:50:56.723Z,16.67
2023-04-21T13:53:26.990Z,17.84
2023-04-21T13:55:56.908Z,17.63
2023-04-21T13:58:23.689Z,17.23
2023-04-21T14:00:50.453Z,17.22
2023-04-21T14:03:17.325Z,17.78
2023-04-21T14:05:44.101Z,17.16
2023-04-21T14:08:11.082Z,17.87
2023-04-21T14:10:37.863Z,18.16
2023-04-21T14:13:05.279Z,18.22
2023-04-21T14:15:32.192Z,18.14
2023-04-21T14:17:58.944Z,18.12
2023-04-21T14:20:25.904Z,17.32
2023-04-21T14:22:52.477Z,19.00
2023-04-21T14:25:19.239Z,18.92
2023-04-21T14:27:45.912Z,19.94
2023-04-21T14:30:13.896Z,19.73
2023-04-21T14:32:45.651Z,19.59
2023-04-21T14:35:13.133Z,19.34
2023-04-21T14:37:40.724Z,19.81
2023-04-21T14:40:08.809Z,20.04
2023-04-21T14:42:36.129Z,20.08
2023-04-21T14:45:02.854Z,19.90
2023-04-21T14:47:29.742Z,20.15
2023-04-21T14:49:57.017Z,20.56
2023-04-21T14:52:27.231Z,20.80
2023-04-21T14:54:53.960Z,21.74
2023-04-21T14:57:21.933Z,22.11
2023-04-21T14:59:50.559Z,22.14
2023-04-21T15:02:18.020Z,22.36
2023-04-21T15:04:45.049Z,22.43
2023-04-21T15:07:12.481Z,23.73
2023-04-21T15:09:39.405Z,23.62
2023-04-21T15:12:06.485Z,24.18
2023-04-21T15:14:33.286Z,24.41
2023-04-21T15:17:00.212Z,24.01
2023-04-21T15:19:26.956Z,24.82
2023-04-21T15:21:53.764Z,25.90
2023-04-21T15:24:20.603Z,25.80
2023-04-21T15:26:47.366Z,25.37
2023-04-21T15:29:14.289Z,24.74
2023-04-21T15:31:41.163Z,24.91
2023-04-21T15:34:08.805Z,24.68
2023-04-21T15:36:35.894Z,23.96
2023-04-21T15:39:03.041Z,24.19
2023-04-21T15:41:31.736Z,24.82
2023-04-21T15:44:00.283Z,25.01
2023-04-21T15:46:26.989Z,24.71
2023-04-21T15:48:53.929Z,24.59
2023-04-21T15:51:20.903Z,24.53
2023-04-21T15:53:49.650Z,25.21
2023-04-21T15:56:17.923Z,24.90
2023-04-21T15:58:44.982Z,25.36
2023-04-21T16:01:12.343Z,25.14
2023-04-21T16:03:40.238Z,25.96
2023-04-21T16:06:07.740Z,25.92
2023-04-21T16:08:34.563Z,26.29
2023-04-21T16:11:01.796Z,26.32
2023-04-21T16:13:29.339Z,27.44
2023-04-21T16:15:56.467Z,27.55
2023-04-21T16:18:23.296Z,27.94
2023-04-21T16:20:50.518Z,27.96
2023-04-21T16:23:17.252Z,26.97
2023-04-21T16:25:44.024Z,27.59
2023-04-21T16:28:11.660Z,27.50
2023-04-21T16:30:43.173Z,27.23
2023-04-21T16:33:14.607Z,27.55
2023-04-21T16:35:41.659Z,27.60
2023-04-21T16:38:08.731Z,27.76
2023-04-21T16:40:35.370Z,27.91
2023-04-21T16:43:02.284Z,28.68
2023-04-21T16:45:29.866Z,28.71
2023-04-21T16:47:57.793Z,28.97
2023-04-21T16:50:24.797Z,28.78
2023-04-21T16:52:51.573Z,28.93
2023-04-21T16:55:18.792Z,29.66
2023-04-21T16:57:45.573Z,29.20
2023-04-21T17:00:13.741Z,29.50
2023-04-21T17:02:40.433Z,29.35
2023-04-21T17:05:07.590Z,29.68
2023-04-21T17:07:34.406Z,30.16
2023-04-21T17:10:01.389Z,30.40
2023-04-21T17:12:27.958Z,30.81
2023-04-21T17:14:54.532Z,30.84
2023-04-21T17:17:21.196Z,31.24
2023-04-21T17:19:48.341Z,31.07
2023-04-21T17:22:14.922Z,31.53
2023-04-21T17:24:52.546Z,31.80
2023-04-21T17:27:20.904Z,32.25
2023-04-21T17:29:47.744Z,32.61
2023-04-21T17:32:14.470Z,32.71
2023-04-21T17:34:41.229Z,32.81
2023-04-21T17:37:08.000Z,33.19
2023-04-21T17:39:34.620Z,33.34
2023-04-21T17:42:02.590Z,33.57
2023-04-21T17:44:29.435Z,33.97
2023-04-21T17:46:56.636Z,34.41
2023-04-21T17:49:24.849Z,34.52
2023-04-21T17:51:51.710Z,34.72
2023-04-21T17:54:18.395Z,34.97
2023-04-21T17:56:47.902Z,35.27
2023-04-21T17:59:14.929Z,35.77
2023-04-21T18:01:41.570Z,35.91
2023-04-21T18:04:08.594Z,36.69
2023-04-21T18:06:36.692Z,36.81
2023-04-21T18:09:05.232Z,37.07
2023-04-21T18:11:32.016Z,37.40
2023-04-21T18:13:59.044Z,37.86
2023-04-21T18:16:26.436Z,37.91
2023-04-21T18:18:53.368Z,38.32
2023-04-21T18:21:20.781Z,39.30
2023-04-21T18:23:47.414Z,39.77
2023-04-21T18:26:14.059Z,39.71
2023-04-21T18:28:40.653Z,40.00
2023-04-21T18:31:07.267Z,40.44
2023-04-21T18:33:34.497Z,41.11
2023-04-21T18:36:01.257Z,41.22
2023-04-21T18:38:27.853Z,41.23
2023-04-21T18:40:55.753Z,41.53
2023-04-21T18:43:22.616Z,43.01
2023-04-21T18:45:49.264Z,42.84
2023-04-21T18:48:15.922Z,43.92
2023-04-21T18:50:42.868Z,44.54
2023-04-21T18:53:09.595Z,45.56
2023-04-21T18:55:37.405Z,46.96
2023-04-21T18:58:04.333Z,47.89
2023-04-21T19:00:32.316Z,48.53
2023-04-21T19:03:04.111Z,49.55
2023-04-21T19:05:31.961Z,49.77
2023-04-21T19:07:58.897Z,50.45
2023-04-21T19:10:26.684Z,49.93
2023-04-21T19:12:53.771Z,51.19
2023-04-21T19:15:22.151Z,52.00
2023-04-21T19:17:48.725Z,51.97
2023-04-21T19:20:15.702Z,51.92
2023-04-21T19:22:42.396Z,52.67
2023-04-21T19:25:09.853Z,52.55
2023-04-21T19:27:36.949Z,52.98
2023-04-21T19:30:05.068Z,53.39
2023-04-21T19:32:31.847Z,53.46
2023-04-21T19:34:58.696Z,53.89
2023-04-21T19:37:26.492Z,54.27
2023-04-21T19:39:53.261Z,54.92
2023-04-21T19:42:19.958Z,55.53
2023-04-21T19:44:46.670Z,55.66
2023-04-21T19:47:13.572Z,55.57
2023-04-21T19:49:40.527Z,55.48
2023-04-21T19:52:07.143Z,56.15
2023-04-21T19:54:34.062Z,56.87
2023-04-21T19:57:01.736Z,57.19
2023-04-21T19:59:28.607Z,57.13
2023-04-21T20:01:55.468Z,57.72
2023-04-21T20:04:22.574Z,58.49
2023-04-21T20:06:49.401Z,59.14
2023-04-21T20:09:16.111Z,59.47
2023-04-21T20:11:43.801Z,59.94
2023-04-21T20:14:10.728Z,62.34
2023-04-21T20:16:37.862Z,64.33
2023-04-21T20:19:04.638Z,63.36
2023-04-21T20:21:32.418Z,60.93
2023-04-21T20:23:59.142Z,57.98
2023-04-21T20:26:26.123Z,56.11
2023-04-21T20:28:52.768Z,56.23
2023-04-21T20:31:23.594Z,57.09
2023-04-21T20:33:50.481Z,58.20
2023-04-21T20:36:17.760Z,60.18
2023-04-21T20:38:46.423Z,59.72
2023-04-21T20:41:13.593Z,60.98
2023-04-21T20:43:40.599Z,64.60
2023-04-21T20:46:08.775Z,64.48
2023-04-21T20:48:35.546Z,62.21
2023-04-21T20:51:02.799Z,60.48
2023-04-21T20:53:29.425Z,57.95
2023-04-21T20:55:56.340Z,57.06
2023-04-21T20:58:24.474Z,58.41
2023-04-21T21:00:51.480Z,59.50
2023-04-21T21:03:21.022Z,60.75
2023-04-21T21:05:47.996Z,62.76
2023-04-21T21:08:15.232Z,64.09
2023-04-21T21:10:42.480Z,62.37
2023-04-21T21:13:09.168Z,60.55
2023-04-21T21:15:35.988Z,57.81
2023-04-21T21:18:04.662Z,56.89
2023-04-21T21:20:31.533Z,57.49
2023-04-21T21:22:58.160Z,58.52
2023-04-21T21:25:25.077Z,59.38
2023-04-21T21:27:51.780Z,59.44
2023-04-21T21:30:18.610Z,59.86
2023-04-21T21:32:49.559Z,63.75
2023-04-21T21:35:16.716Z,64.55
2023-04-21T21:37:43.325Z,62.63
2023-04-21T21:40:11.038Z,61.21
2023-04-21T21:42:39.100Z,58.67
2023-04-21T21:45:06.717Z,57.09
2023-04-21T21:47:36.487Z,57.64
2023-04-21T21:50:05.840Z,58.64
2023-04-21T21:52:32.450Z,60.25
2023-04-21T21:54:59.098Z,63.79
2023-04-21T21:57:25.805Z,64.22
2023-04-21T21:59:52.641Z,62.58
2023-04-21T22:02:19.311Z,60.88
2023-04-21T22:04:46.121Z,58.47
2023-04-21T22:07:12.733Z,57.07
2023-04-21T22:09:40.040Z,57.90
2023-04-21T22:12:07.387Z,58.95
2023-04-21T22:14:34.269Z,60.11
2023-04-21T22:17:00.943Z,63.33
2023-04-21T22:19:27.564Z,64.62
2023-04-21T22:21:54.353Z,63.25
2023-04-21T22:24:21.256Z,62.03
2023-04-21T22:26:48.207Z,60.84
2023-04-21T22:29:14.802Z,58.59
2023-04-21T22:31:41.618Z,57.79
2023-04-21T22:34:08.564Z,58.71
2023-04-21T22:36:35.204Z,59.75
2023-04-21T22:39:01.972Z,62.79
2023-04-21T22:41:28.632Z,64.76
2023-04-21T22:43:57.746Z,63.70
2023-04-21T22:46:24.390Z,62.96
2023-04-21T22:48:54.122Z,61.77
2023-04-21T22:51:21.575Z,61.15
2023-04-21T22:53:48.196Z,60.13
2023-04-21T22:56:15.171Z,58.33
2023-04-21T22:58:42.812Z,57.30
2023-04-21T23:01:09.662Z,58.71
2023-04-21T23:03:37.104Z,59.88
2023-04-21T23:06:04.011Z,63.19
2023-04-21T23:08:30.535Z,64.80
2023-04-21T23:10:57.563Z,63.76
2023-04-21T23:13:24.206Z,63.07
2023-04-21T23:15:50.754Z,62.14
2023-04-21T23:18:17.445Z,61.84
2023-04-21T23:20:44.118Z,61.01
2023-04-21T23:23:10.707Z,60.38
2023-04-21T23:25:37.364Z,58.95
2023-04-21T23:28:03.999Z,59.06
2023-04-21T23:30:30.649Z,59.89
2023-04-21T23:32:57.588Z,62.62
2023-04-21T23:35:24.230Z,64.95
2023-04-21T23:37:50.744Z,64.10
2023-04-21T23:40:17.432Z,63.49
2023-04-21T23:42:47.537Z,62.88
2023-04-21T23:45:14.675Z,61.78
2023-04-21T23:47:41.490Z,61.28
2023-04-21T23:50:08.294Z,61.01
2023-04-21T23:52:35.001Z,60.86
2023-04-21T23:55:01.645Z,60.94
2023-04-21T23:57:28.349Z,60.80
2023-04-21T23:59:54.869Z,60.48
